Waddams Grove, Illinois
Current Conditions -  °F | °C
As of 1:55 AM on Friday 31 Oct 2014 (Local Time) from KFEP Reporting Station
Overcast Overcast  
Wind Chill: 36°   Ceiling: 3700
Heat Index: 43°   Visibility: 10mi
Dew Point: 32°   Wind: 13mph
Humidity: 66%   Direction: 330°NNW
Pressure: 30.11"   Gusts: 21mph
Location:  42.3875°N, 89.8373°W
Report Text: KFEP 310655Z AUTO 33011G18KT 10SM SCT026 OVC037 06/00 A3011 RMK AO2 T00590000
Loading
Personal Weather Stations






























Interactive Weather Map
Tropical Storm Tracking
New forecast layout! Learn more

10-Day Weather Forecast

Advertisements
Track Severe Weather on mobile